createdAt,value
2018-12-17T00:01:45.984Z,100589.19
2018-12-17T00:03:44.746Z,100505.95
2018-12-17T00:06:48.401Z,100602.27
2018-12-17T00:08:47.188Z,100510.78
2018-12-17T00:13:49.654Z,100510.67
2018-12-17T00:17:08.150Z,100592.61
2018-12-17T00:18:52.096Z,100511.59
2018-12-17T00:22:10.615Z,100599.28
2018-12-17T00:23:54.534Z,100506.52
2018-12-17T00:27:13.032Z,100588.62
2018-12-17T00:28:56.987Z,100502.37
2018-12-17T00:32:15.475Z,100590.77
2018-12-17T00:33:59.441Z,100501.48
2018-12-17T00:37:17.995Z,100591.64
2018-12-17T00:39:01.894Z,100505.71
2018-12-17T00:42:20.379Z,100595.20
2018-12-17T00:44:04.352Z,100510.30
2018-12-17T00:47:22.823Z,100596.72
2018-12-17T00:49:06.807Z,100512.47
2018-12-17T00:52:25.260Z,100595.86
2018-12-17T00:54:09.262Z,100516.25
2018-12-17T00:57:27.720Z,100593.09
2018-12-17T00:59:11.726Z,100509.66
2018-12-17T01:02:30.164Z,100602.80
2018-12-17T01:04:14.181Z,100519.25
2018-12-17T01:07:32.598Z,100608.65
2018-12-17T01:09:16.622Z,100523.04
2018-12-17T01:12:35.031Z,100609.30
2018-12-17T01:14:19.065Z,100519.30
2018-12-17T01:17:37.453Z,100611.38
2018-12-17T01:19:21.532Z,100531.95
2018-12-17T01:22:39.890Z,100623.17
2018-12-17T01:24:23.973Z,100541.25
2018-12-17T01:27:42.331Z,100636.81
2018-12-17T01:29:26.432Z,100548.06
2018-12-17T01:32:44.770Z,100639.83
2018-12-17T01:34:28.869Z,100556.55
2018-12-17T01:37:47.221Z,100646.33
2018-12-17T01:39:31.322Z,100558.98
2018-12-17T01:42:49.647Z,100645.25
2018-12-17T01:44:33.775Z,100558.68
2018-12-17T01:47:52.111Z,100648.96
2018-12-17T01:49:36.229Z,100564.12
2018-12-17T01:52:54.547Z,100643.31
2018-12-17T01:54:38.672Z,100560.06
2018-12-17T01:57:57.018Z,100641.13
2018-12-17T01:59:41.118Z,100557.80
2018-12-17T02:02:59.465Z,100645.56
2018-12-17T02:04:43.589Z,100555.02
2018-12-17T02:08:01.908Z,100639.95
2018-12-17T02:09:46.040Z,100559.72
2018-12-17T02:13:04.338Z,100644.80
2018-12-17T02:14:48.482Z,100561.84
2018-12-17T02:18:06.778Z,100648.49
2018-12-17T02:19:50.944Z,100559.98
2018-12-17T02:23:09.220Z,100660.71
2018-12-17T02:24:53.384Z,100571.17
2018-12-17T02:28:11.660Z,100658.92
2018-12-17T02:29:55.829Z,100572.59
2018-12-17T02:33:14.111Z,100669.95
2018-12-17T02:34:58.272Z,100583.06
2018-12-17T02:38:16.550Z,100676.58
2018-12-17T02:40:00.789Z,100597.09
2018-12-17T02:43:18.990Z,100686.95
2018-12-17T02:45:03.238Z,100602.05
2018-12-17T02:48:21.427Z,100688.06
2018-12-17T02:50:05.685Z,100600.02
2018-12-17T02:53:23.874Z,100692.30
2018-12-17T02:55:08.128Z,100600.20
2018-12-17T02:58:26.311Z,100697.90
2018-12-17T03:00:10.579Z,100611.33
2018-12-17T03:03:28.750Z,100696.02
2018-12-17T03:05:13.019Z,100616.47
2018-12-17T03:08:31.209Z,100701.24
2018-12-17T03:10:15.452Z,100613.69
2018-12-17T03:13:33.655Z,100718.23
2018-12-17T03:15:17.908Z,100630.31
2018-12-17T03:18:36.085Z,100716.36
2018-12-17T03:20:20.376Z,100636.41
2018-12-17T03:23:38.533Z,100722.77
2018-12-17T03:25:22.834Z,100637.67
2018-12-17T03:28:40.961Z,100738.57
2018-12-17T03:30:25.298Z,100642.91
2018-12-17T03:33:43.384Z,100746.05
2018-12-17T03:35:27.756Z,100651.77
2018-12-17T03:38:45.807Z,100748.38
2018-12-17T03:40:30.217Z,100663.30
2018-12-17T03:43:48.279Z,100758.55
2018-12-17T03:45:32.669Z,100674.20
2018-12-17T03:48:50.706Z,100768.13
2018-12-17T03:50:35.115Z,100681.25
2018-12-17T03:53:53.907Z,100772.06
2018-12-17T03:55:37.564Z,100680.27
2018-12-17T03:58:59.435Z,100772.30
2018-12-17T04:00:40.004Z,100687.56
2018-12-17T04:03:58.798Z,100778.09
2018-12-17T04:05:42.451Z,100687.64
2018-12-17T04:09:01.300Z,100785.05
2018-12-17T04:10:44.897Z,100689.88
2018-12-17T04:14:03.668Z,100782.42
2018-12-17T04:15:47.386Z,100691.77
2018-12-17T04:19:06.108Z,100782.98
2018-12-17T04:20:49.335Z,100690.66
2018-12-17T04:24:08.561Z,100788.91
2018-12-17T04:25:51.788Z,100699.77
2018-12-17T04:29:11.078Z,100796.75
2018-12-17T04:30:54.235Z,100700.09
2018-12-17T04:34:13.454Z,100794.45
2018-12-17T04:35:56.687Z,100710.58
2018-12-17T04:39:15.898Z,100807.17
2018-12-17T04:40:59.127Z,100719.38
2018-12-17T04:44:18.334Z,100817.21
2018-12-17T04:46:01.579Z,100723.90
2018-12-17T04:49:23.386Z,100820.05
2018-12-17T04:51:04.023Z,100735.26
2018-12-17T04:54:25.828Z,100826.42
2018-12-17T04:56:06.475Z,100735.09
2018-12-17T04:59:28.270Z,100821.72
2018-12-17T05:01:08.926Z,100736.81
2018-12-17T05:04:30.713Z,100834.95
2018-12-17T05:06:11.369Z,100741.77
2018-12-17T05:09:33.167Z,100834.83
2018-12-17T05:11:13.816Z,100740.67
2018-12-17T05:14:35.610Z,100830.30
2018-12-17T05:16:16.266Z,100742.99
2018-12-17T05:19:38.047Z,100840.44
2018-12-17T05:21:18.737Z,100751.42
2018-12-17T05:24:40.507Z,100846.19
2018-12-17T05:26:21.208Z,100766.58
2018-12-17T05:29:42.928Z,100853.79
2018-12-17T05:31:23.658Z,100769.48
2018-12-17T05:34:45.380Z,100859.79
2018-12-17T05:36:26.126Z,100773.17
2018-12-17T05:39:47.846Z,100863.69
2018-12-17T05:41:28.571Z,100779.61
2018-12-17T05:44:50.316Z,100864.81
2018-12-17T05:46:31.028Z,100777.98
2018-12-17T05:49:52.768Z,100875.53
2018-12-17T05:51:33.543Z,100788.12
2018-12-17T05:54:55.222Z,100879.66
2018-12-17T05:56:35.991Z,100795.61
2018-12-17T05:59:57.661Z,100882.64
2018-12-17T06:01:38.450Z,100802.33
2018-12-17T06:05:00.091Z,100896.75
2018-12-17T06:06:40.931Z,100809.02
2018-12-17T06:10:02.527Z,100902.48
2018-12-17T06:11:43.390Z,100815.24
2018-12-17T06:15:05.017Z,100909.81
2018-12-17T06:16:45.855Z,100816.50
2018-12-17T06:20:07.432Z,100913.09
2018-12-17T06:21:48.327Z,100838.73
2018-12-17T06:25:09.865Z,100929.92
2018-12-17T06:26:50.795Z,100843.67
2018-12-17T06:30:12.295Z,100938.70
2018-12-17T06:31:53.258Z,100856.16
2018-12-17T06:35:15.002Z,100943.27
2018-12-17T06:36:55.954Z,100861.30
2018-12-17T06:40:17.431Z,100958.75
2018-12-17T06:41:58.422Z,100871.11
2018-12-17T06:45:19.861Z,100962.27
2018-12-17T06:47:00.884Z,100876.27
2018-12-17T06:50:22.299Z,100960.50
2018-12-17T06:52:03.358Z,100871.89
2018-12-17T06:55:24.722Z,100960.11
2018-12-17T06:57:05.824Z,100873.49
2018-12-17T07:00:27.170Z,100974.08
2018-12-17T07:02:08.287Z,100891.89
2018-12-17T07:05:29.600Z,100978.88
2018-12-17T07:07:10.752Z,100889.61
2018-12-17T07:10:32.053Z,100983.58
2018-12-17T07:12:13.239Z,100900.34
2018-12-17T07:15:34.483Z,100995.80
2018-12-17T07:17:15.725Z,100904.48
2018-12-17T07:20:36.923Z,101000.90
2018-12-17T07:22:18.174Z,100913.33
2018-12-17T07:25:39.376Z,101010.87
2018-12-17T07:27:20.628Z,100920.88
2018-12-17T07:30:41.820Z,101015.58
2018-12-17T07:32:23.127Z,100931.85
2018-12-17T07:35:44.269Z,101027.02
2018-12-17T07:37:25.577Z,100939.75
2018-12-17T07:40:46.710Z,101038.52
2018-12-17T07:42:28.025Z,100952.63
2018-12-17T07:45:49.381Z,101054.08
2018-12-17T07:47:30.475Z,100969.23
2018-12-17T07:50:51.830Z,101062.69
2018-12-17T07:52:32.948Z,100977.77
2018-12-17T07:55:54.276Z,101067.43
2018-12-17T07:57:35.465Z,100988.33
2018-12-17T08:00:56.733Z,101079.33
2018-12-17T08:02:37.983Z,100992.48
2018-12-17T08:05:59.188Z,101082.73
2018-12-17T08:07:40.372Z,100996.70
2018-12-17T08:11:01.638Z,101088.12
2018-12-17T08:12:42.826Z,101003.84
2018-12-17T08:16:04.086Z,101086.76
2018-12-17T08:17:45.349Z,101002.05
2018-12-17T08:21:06.532Z,101099.36
2018-12-17T08:22:47.799Z,101015.25
2018-12-17T08:26:08.985Z,101110.56
2018-12-17T08:27:50.254Z,101013.89
2018-12-17T08:31:11.503Z,101113.92
2018-12-17T08:32:52.699Z,101023.13
2018-12-17T08:36:13.978Z,101123.28
2018-12-17T08:37:55.155Z,101038.16
2018-12-17T08:41:16.439Z,101131.56
2018-12-17T08:42:57.597Z,101043.23
2018-12-17T08:46:18.889Z,101133.09
2018-12-17T08:48:00.047Z,101045.83
2018-12-17T08:51:21.343Z,101139.58
2018-12-17T08:53:02.504Z,101037.17
2018-12-17T08:56:23.795Z,101138.21
2018-12-17T08:58:04.961Z,101049.75
2018-12-17T09:01:26.246Z,101141.05
2018-12-17T09:03:07.407Z,101048.80
2018-12-17T09:06:28.688Z,101142.09
2018-12-17T09:08:09.886Z,101051.15
2018-12-17T09:11:31.190Z,101152.03
2018-12-17T09:13:12.371Z,101069.21
2018-12-17T09:16:33.644Z,101158.83
2018-12-17T09:18:14.836Z,101082.97
2018-12-17T09:21:36.100Z,101175.69
2018-12-17T09:23:17.365Z,101094.67
2018-12-17T09:26:38.523Z,101186.73
2018-12-17T09:28:19.781Z,101100.00
2018-12-17T09:31:41.015Z,101184.34
2018-12-17T09:33:22.243Z,101146.97
2018-12-17T09:36:43.390Z,101201.20
2018-12-17T09:38:24.702Z,101142.94
2018-12-17T09:41:45.821Z,101197.64
2018-12-17T09:43:27.178Z,101109.66
2018-12-17T09:46:48.276Z,101198.17
2018-12-17T09:48:29.648Z,101114.69
2018-12-17T09:51:50.720Z,101198.09
2018-12-17T09:53:32.135Z,101110.57
2018-12-17T09:56:53.281Z,101195.69
2018-12-17T09:58:34.603Z,101118.37
2018-12-17T10:01:55.728Z,101203.46
2018-12-17T10:03:37.063Z,101113.98
2018-12-17T10:06:58.180Z,101208.83
2018-12-17T10:08:39.512Z,101116.20
2018-12-17T10:12:00.638Z,101206.27
2018-12-17T10:13:41.972Z,101113.80
2018-12-17T10:17:03.084Z,101205.24
2018-12-17T10:18:44.426Z,101115.64
2018-12-17T10:22:05.526Z,101211.90
2018-12-17T10:23:46.880Z,101117.84
2018-12-17T10:27:07.980Z,101209.58
2018-12-17T10:28:49.325Z,101124.20
2018-12-17T10:32:10.505Z,101219.59
2018-12-17T10:33:51.779Z,101130.47
2018-12-17T10:37:13.021Z,101214.06
2018-12-17T10:38:54.231Z,101126.30
2018-12-17T10:42:15.473Z,101213.75
2018-12-17T10:43:56.689Z,101120.84
2018-12-17T10:47:17.936Z,101212.87
2018-12-17T10:48:59.136Z,101122.66
2018-12-17T10:52:20.389Z,101213.30
2018-12-17T10:54:01.589Z,101123.58
2018-12-17T10:57:22.874Z,101211.20
2018-12-17T10:59:04.062Z,101125.70
2018-12-17T11:02:25.332Z,101207.27
2018-12-17T11:04:06.509Z,101122.36
2018-12-17T11:07:27.786Z,101205.17
2018-12-17T11:09:08.998Z,101114.72
2018-12-17T11:12:30.232Z,101198.22
2018-12-17T11:14:11.422Z,101107.40
2018-12-17T11:17:32.676Z,101201.27
2018-12-17T11:19:13.873Z,101107.99
2018-12-17T11:22:35.136Z,101197.87
2018-12-17T11:24:16.332Z,101105.91
2018-12-17T11:27:37.574Z,101194.08
2018-12-17T11:29:18.774Z,101112.38
2018-12-17T11:32:40.002Z,101197.92
2018-12-17T11:34:21.229Z,101110.63
2018-12-17T11:37:42.464Z,101208.74
2018-12-17T11:39:23.679Z,101115.06
2018-12-17T11:42:44.915Z,101204.59
2018-12-17T11:44:26.144Z,101117.81
2018-12-17T11:47:47.366Z,101209.03
2018-12-17T11:49:28.594Z,101117.05
2018-12-17T11:52:49.797Z,101194.28
2018-12-17T11:54:31.064Z,101113.92
2018-12-17T11:58:01.396Z,101198.83
2018-12-17T11:59:33.518Z,101113.25
2018-12-17T12:03:03.830Z,101203.98
2018-12-17T12:04:35.999Z,101113.77
2018-12-17T12:08:06.280Z,101203.66
2018-12-17T12:09:38.466Z,101122.56
2018-12-17T12:13:08.707Z,101205.73
2018-12-17T12:14:40.934Z,101117.55
2018-12-17T12:18:11.140Z,101202.53
2018-12-17T12:19:43.403Z,101119.30
2018-12-17T12:23:13.621Z,101209.03
2018-12-17T12:24:45.881Z,101125.30
2018-12-17T12:28:16.049Z,101215.16
2018-12-17T12:29:48.358Z,101129.89
2018-12-17T12:33:18.489Z,101225.65
2018-12-17T12:34:50.828Z,101136.39
2018-12-17T12:38:20.916Z,101233.20
2018-12-17T12:39:53.304Z,101143.31
2018-12-17T12:43:23.355Z,101237.52
2018-12-17T12:44:55.762Z,101152.03
2018-12-17T12:48:25.788Z,101241.65
2018-12-17T12:49:58.237Z,101151.38
2018-12-17T12:53:28.215Z,101229.52
2018-12-17T12:55:00.720Z,101143.23
2018-12-17T12:58:30.663Z,101240.93
2018-12-17T13:00:03.174Z,101152.34
2018-12-17T13:03:33.109Z,101258.99
2018-12-17T13:05:05.630Z,101176.90
2018-12-17T13:08:35.549Z,101279.80
2018-12-17T13:10:08.071Z,101192.22
2018-12-17T13:13:37.985Z,101284.28
2018-12-17T13:15:10.576Z,101203.30
2018-12-17T13:18:40.429Z,101303.71
2018-12-17T13:20:13.130Z,101211.62
2018-12-17T13:23:42.877Z,101301.24
2018-12-17T13:25:15.583Z,101206.47
2018-12-17T13:28:45.315Z,101308.52
2018-12-17T13:30:18.040Z,101211.34
2018-12-17T13:33:47.779Z,101301.61
2018-12-17T13:35:20.489Z,101221.85
2018-12-17T13:38:50.231Z,101309.50
2018-12-17T13:40:22.937Z,101223.20
2018-12-17T13:43:52.680Z,101309.52
2018-12-17T13:45:25.381Z,101227.69
2018-12-17T13:48:55.141Z,101308.12
2018-12-17T13:50:47.194Z,101222.23
2018-12-17T13:53:57.590Z,101312.78
2018-12-17T13:55:49.640Z,101233.83
2018-12-17T13:59:00.032Z,101336.80
2018-12-17T14:00:52.233Z,101246.50
2018-12-17T14:04:02.472Z,101338.23
2018-12-17T14:06:15.018Z,101247.96
2018-12-17T14:09:04.915Z,101348.38
2018-12-17T14:11:16.781Z,101262.71
2018-12-17T14:14:07.371Z,101360.09
2018-12-17T14:16:19.234Z,101271.32
2018-12-17T14:19:18.641Z,101361.52
2018-12-17T14:21:41.013Z,101279.54
2018-12-17T14:24:21.087Z,101359.34
2018-12-17T14:26:43.476Z,101278.70
2018-12-17T14:29:23.531Z,101375.52
2018-12-17T14:31:45.918Z,101286.95
2018-12-17T14:34:26.016Z,101394.95
2018-12-17T14:36:48.359Z,101307.72
2018-12-17T14:39:28.459Z,101400.24
2018-12-17T14:41:50.826Z,101313.25
2018-12-17T14:44:34.141Z,101401.01
2018-12-17T14:47:12.617Z,101321.77
2018-12-17T14:49:36.588Z,101407.50
2018-12-17T14:52:15.079Z,101322.63
2018-12-17T14:54:39.039Z,101414.64
2018-12-17T14:57:17.530Z,101332.62
2018-12-17T14:59:41.489Z,101423.05
2018-12-17T15:02:19.982Z,101342.06
2018-12-17T15:04:43.963Z,101428.67
2018-12-17T15:07:22.460Z,101342.02
2018-12-17T15:09:46.408Z,101432.98
2018-12-17T15:12:24.938Z,101352.81
2018-12-17T15:14:48.849Z,101435.94
2018-12-17T15:17:27.385Z,101355.71
2018-12-17T15:19:51.284Z,101442.20
2018-12-17T15:22:29.842Z,101344.00
2018-12-17T15:24:53.710Z,101439.30
2018-12-17T15:27:32.325Z,101345.27
2018-12-17T15:29:56.237Z,101438.26
2018-12-17T15:32:34.802Z,101355.83
2018-12-17T15:34:58.668Z,101445.64
2018-12-17T15:40:01.116Z,101456.05
2018-12-17T15:42:45.380Z,101358.34
2018-12-17T15:45:03.567Z,101446.77
2018-12-17T15:47:47.867Z,101365.02
2018-12-17T15:50:06.039Z,101467.11
2018-12-17T15:52:50.326Z,101383.94
2018-12-17T15:55:08.493Z,101480.33
2018-12-17T15:57:52.786Z,101385.41
2018-12-17T16:00:10.942Z,101486.49
2018-12-17T16:02:55.281Z,101389.55
2018-12-17T16:05:13.377Z,101490.41
2018-12-17T16:07:57.757Z,101400.38
2018-12-17T16:10:15.853Z,101493.45
2018-12-17T16:13:00.199Z,101402.89
2018-12-17T16:15:18.281Z,101498.98
2018-12-17T16:18:02.652Z,101409.78
2018-12-17T16:20:20.721Z,101503.88
2018-12-17T16:23:05.096Z,101420.05
2018-12-17T16:25:23.183Z,101510.77
2018-12-17T16:28:07.544Z,101429.70
2018-12-17T16:30:25.695Z,101515.09
2018-12-17T16:33:09.989Z,101425.58
2018-12-17T16:35:28.087Z,101519.89
2018-12-17T16:38:12.433Z,101424.50
2018-12-17T16:40:30.557Z,101517.39
2018-12-17T16:43:14.903Z,101419.73
2018-12-17T16:45:33.027Z,101517.56
2018-12-17T16:48:17.355Z,101426.92
2018-12-17T16:50:35.460Z,101521.64
2018-12-17T16:53:19.807Z,101435.80
2018-12-17T16:55:37.971Z,101532.84
2018-12-17T16:58:22.269Z,101454.50
2018-12-17T17:00:40.379Z,101543.25
2018-12-17T17:03:24.741Z,101456.06
2018-12-17T17:05:42.881Z,101553.19
2018-12-17T17:08:27.203Z,101457.41
2018-12-17T17:10:45.276Z,101548.16
2018-12-17T17:13:29.686Z,101462.64
2018-12-17T17:15:47.856Z,101549.58
2018-12-17T17:18:32.148Z,101467.14
2018-12-17T17:20:50.292Z,101560.41
2018-12-17T17:23:53.946Z,101466.12
2018-12-17T17:25:52.729Z,101554.86
2018-12-17T17:28:56.395Z,101479.89
2018-12-17T17:30:55.178Z,101580.02
2018-12-17T17:33:58.854Z,101491.65
2018-12-17T17:35:57.637Z,101576.17
2018-12-17T17:41:00.095Z,101587.39
2018-12-17T17:44:09.867Z,101501.17
2018-12-17T17:46:02.543Z,101602.32
2018-12-17T17:49:12.344Z,101505.79
2018-12-17T17:51:05.030Z,101600.63
2018-12-17T17:54:14.815Z,101513.89
2018-12-17T17:56:07.464Z,101600.64
2018-12-17T17:59:17.282Z,101511.59
2018-12-17T18:01:09.900Z,101609.92
2018-12-17T18:04:19.736Z,101520.38
2018-12-17T18:06:16.314Z,101622.91
2018-12-17T18:09:22.200Z,101526.09
2018-12-17T18:11:14.870Z,101618.98
2018-12-17T18:14:24.668Z,101513.56
2018-12-17T18:16:17.264Z,101613.36
2018-12-17T18:19:27.159Z,101528.79
2018-12-17T18:21:19.683Z,101621.77
2018-12-17T18:26:22.132Z,101634.84
2018-12-17T18:29:38.120Z,101542.96
2018-12-17T18:31:24.639Z,101645.56
2018-12-17T18:34:40.575Z,101549.84
2018-12-17T18:36:27.115Z,101647.63
2018-12-17T18:39:43.037Z,101545.23
2018-12-17T18:41:29.644Z,101644.27
2018-12-17T18:44:45.569Z,101552.67
2018-12-17T18:46:32.107Z,101651.23
2018-12-17T18:49:47.961Z,101561.41
2018-12-17T18:51:34.564Z,101654.36
2018-12-17T18:56:37.026Z,101655.31
2018-12-17T18:59:58.245Z,101580.99
2018-12-17T19:01:39.576Z,101657.85
2018-12-17T19:05:00.696Z,101574.38
2018-12-17T19:06:42.043Z,101662.52
2018-12-17T19:10:03.151Z,101573.95
2018-12-17T19:11:44.500Z,101667.19
2018-12-17T19:15:05.615Z,101585.23
2018-12-17T19:16:46.992Z,101685.59
2018-12-17T19:20:08.096Z,101594.89
2018-12-17T19:21:49.471Z,101688.64
2018-12-17T19:25:10.554Z,101598.00
2018-12-17T19:26:51.951Z,101695.59
2018-12-17T19:30:13.037Z,101594.80
2018-12-17T19:31:54.459Z,101698.48
2018-12-17T19:35:15.488Z,101602.71
2018-12-17T19:36:56.901Z,101700.81
2018-12-17T19:40:17.949Z,101609.00
2018-12-17T19:41:59.330Z,101698.38
2018-12-17T19:45:20.419Z,101611.50
2018-12-17T19:47:01.769Z,101706.34
2018-12-17T19:50:22.888Z,101617.23
2018-12-17T19:52:04.201Z,101715.11
2018-12-17T19:55:25.382Z,101622.75
2018-12-17T19:57:06.643Z,101718.38
2018-12-17T20:00:27.861Z,101624.73
2018-12-17T20:02:09.099Z,101724.97
2018-12-17T20:05:30.328Z,101626.55
2018-12-17T20:07:11.532Z,101728.80
2018-12-17T20:10:32.800Z,101630.62
2018-12-17T20:12:13.991Z,101735.14
2018-12-17T20:15:35.290Z,101641.52
2018-12-17T20:17:16.444Z,101745.48
2018-12-17T20:20:37.769Z,101645.46
2018-12-17T20:22:18.893Z,101743.06
2018-12-17T20:25:40.269Z,101652.83
2018-12-17T20:27:21.452Z,101749.24
2018-12-17T20:30:42.742Z,101661.75
2018-12-17T20:32:23.912Z,101754.36
2018-12-17T20:35:45.202Z,101664.97
2018-12-17T20:37:26.365Z,101762.88
2018-12-17T20:40:47.690Z,101665.91
2018-12-17T20:42:28.823Z,101765.03
2018-12-17T20:45:50.161Z,101670.16
2018-12-17T20:47:31.258Z,101771.05
2018-12-17T20:50:52.628Z,101668.91
2018-12-17T20:52:33.710Z,101762.94
2018-12-17T20:55:55.098Z,101664.17
2018-12-17T20:57:36.142Z,101763.38
2018-12-17T21:00:57.570Z,101673.76
2018-12-17T21:02:38.597Z,101776.44
2018-12-17T21:06:19.709Z,101679.37
2018-12-17T21:07:41.067Z,101769.23
2018-12-17T21:11:22.165Z,101675.19
2018-12-17T21:12:43.554Z,101772.64
2018-12-17T21:16:24.606Z,101676.09
2018-12-17T21:17:46.011Z,101768.95
2018-12-17T21:21:27.092Z,101676.20
2018-12-17T21:22:48.488Z,101773.29
2018-12-17T21:26:49.186Z,101675.34
2018-12-17T21:27:50.943Z,101772.74
2018-12-17T21:31:51.661Z,101681.11
2018-12-17T21:32:53.398Z,101774.06
2018-12-17T21:36:54.143Z,101680.30
2018-12-17T21:37:55.878Z,101773.34
2018-12-17T21:42:58.337Z,101774.39
2018-12-17T21:47:24.741Z,101680.19
2018-12-17T21:48:00.782Z,101777.62
2018-12-17T21:52:27.210Z,101682.15
2018-12-17T21:53:03.246Z,101781.89
2018-12-17T21:57:29.679Z,101683.39
2018-12-17T21:58:05.690Z,101782.96
2018-12-17T22:02:32.144Z,101682.11
2018-12-17T22:03:13.203Z,101778.85
2018-12-17T22:07:34.610Z,101680.05
2018-12-17T22:08:12.531Z,101778.21
2018-12-17T22:13:14.989Z,101785.84
2018-12-17T22:17:44.953Z,101695.23
2018-12-17T22:18:17.412Z,101788.41
2018-12-17T22:22:47.408Z,101698.16
2018-12-17T22:23:19.853Z,101795.40
2018-12-17T22:27:49.864Z,101705.94
2018-12-17T22:28:22.279Z,101793.73
2018-12-17T22:32:52.318Z,101706.89
2018-12-17T22:33:24.710Z,101800.59
2018-12-17T22:37:54.783Z,101709.73
2018-12-17T22:38:27.146Z,101796.86
2018-12-17T22:42:57.257Z,101703.64
2018-12-17T22:43:29.584Z,101798.92
2018-12-17T22:47:59.729Z,101709.89
2018-12-17T22:48:32.020Z,101799.13
2018-12-17T22:53:02.742Z,101704.02
2018-12-17T22:53:34.457Z,101792.96
2018-12-17T22:58:04.674Z,101704.30
2018-12-17T22:58:42.377Z,101803.30
2018-12-17T23:03:26.774Z,101707.36
2018-12-17T23:03:39.355Z,101801.39
2018-12-17T23:08:29.245Z,101714.30
2018-12-17T23:08:41.838Z,101812.50
2018-12-17T23:14:10.945Z,101716.25
2018-12-17T23:14:21.576Z,101810.50
2018-12-17T23:19:12.865Z,101717.41
2018-12-17T23:19:23.459Z,101809.02
2018-12-17T23:24:15.325Z,101710.23
2018-12-17T23:24:25.897Z,101800.20
2018-12-17T23:29:28.357Z,101803.44
2018-12-17T23:34:26.128Z,101709.17
2018-12-17T23:34:30.786Z,101805.11
2018-12-17T23:39:28.606Z,101702.81
2018-12-17T23:39:33.202Z,101800.19
2018-12-17T23:44:31.077Z,101701.83
2018-12-17T23:44:35.626Z,101801.09
2018-12-17T23:49:33.544Z,101705.74
2018-12-17T23:49:38.048Z,101796.39
2018-12-17T23:54:40.521Z,101791.00
2018-12-17T23:59:42.963Z,101797.48
2018-12-17T23:59:44.101Z,101703.12
